SAME/MDZ METAR and TAF weather

Enter ICAO airport designator
Station Type Date Time Source
SAME METAR 2020/04/05 12:00 UTC NOAA

SAME 051200Z 00000KT 9999 BKN040 SCT100 16/11 Q1010


Station Type Date Time Source
SAME Decoded METAR 2020/04/05 12:00 UTC NOAA

Mendoza Aerodrome, Argentina (SAME) 32-50S 068-47W 704M
Apr 05, 2020 - 08:00 AM EDT / 2020.04.05 1200 UTC
Wind: Calm:0
Visibility: greater than 7 mile(s):0
Sky conditions: mostly cloudy
Temperature: 60 F (16 C)
Dew Point: 51 F (11 C)
Relative Humidity: 72%
Pressure (altimeter): 29.83 in. Hg (1010 hPa)
ob: SAME 051200Z 00000KT 9999 BKN040 SCT100 16/11 Q1010
cycle: 12

Station Type Date Time Source
SAME TAF 2020/04/05 12:12 UTC NOAA

TAF TAF SAME 051100Z 0512/0612 14005KT CAVOK TX28/0520Z TN13/0610Z
BECMG 0603/0605 16010KT 6000 DZ OVC030
BECMG 0609/0611 9999 BKN030

Example: see airport list